createdAt,value
2018-12-16T00:00:51.865Z,70.78
2018-12-16T00:19:40.084Z,70.01
2018-12-16T00:22:09.536Z,70.66
2018-12-16T00:24:37.686Z,70.70
2018-12-16T00:27:12.255Z,70.71
2018-12-16T00:29:43.259Z,71.14
2018-12-16T00:32:11.459Z,71.17
2018-12-16T00:37:23.374Z,70.70
2018-12-16T00:39:51.451Z,71.16
2018-12-16T00:42:28.274Z,70.42
2018-12-16T00:44:57.484Z,70.68
2018-12-16T00:47:26.919Z,69.92
2018-12-16T00:49:58.039Z,70.71
2018-12-16T00:52:59.317Z,70.57
2018-12-16T00:55:52.019Z,70.50
2018-12-16T00:58:23.105Z,70.39
2018-12-16T01:00:51.819Z,71.02
2018-12-16T01:03:24.309Z,70.45
2018-12-16T01:37:41.938Z,71.17
2018-12-16T01:40:19.213Z,70.39
2018-12-16T01:43:01.849Z,70.09
2018-12-16T01:48:51.278Z,70.96
2018-12-16T01:51:35.134Z,70.61
2018-12-16T01:54:14.591Z,69.94
2018-12-16T01:59:53.185Z,70.69
2018-12-16T02:02:26.114Z,69.54
2018-12-16T02:11:04.942Z,69.67
2018-12-16T02:13:37.799Z,69.42
2018-12-16T02:16:06.645Z,69.36
2018-12-16T02:18:43.003Z,70.24
2018-12-16T02:34:48.366Z,69.78
2018-12-16T02:39:59.501Z,69.59
2018-12-16T02:42:27.649Z,68.84
2018-12-16T02:44:57.054Z,69.42
2018-12-16T02:47:25.149Z,68.96
2018-12-16T02:49:54.069Z,70.07
2018-12-16T02:52:22.419Z,70.30
2018-12-16T02:54:50.697Z,69.31
2018-12-16T02:57:19.875Z,69.61
2018-12-16T02:59:48.544Z,68.85
2018-12-16T03:02:16.735Z,69.86
2018-12-16T03:04:48.509Z,68.46
2018-12-16T03:07:16.631Z,68.42
2018-12-16T03:09:44.949Z,69.16
2018-12-16T03:12:13.089Z,69.21
2018-12-16T03:14:44.889Z,69.28
2018-12-16T03:17:13.281Z,69.00
2018-12-16T03:19:43.020Z,69.02
2018-12-16T03:22:14.498Z,69.80
2018-12-16T03:24:45.430Z,69.59
2018-12-16T03:27:16.976Z,68.74
2018-12-16T03:29:50.389Z,68.67
2018-12-16T03:32:22.166Z,68.90
2018-12-16T03:34:51.744Z,69.10
2018-12-16T03:37:21.767Z,68.81
2018-12-16T03:39:51.825Z,69.27
2018-12-16T03:42:21.216Z,69.33
2018-12-16T03:44:51.451Z,68.70
2018-12-16T03:47:21.406Z,68.99
2018-12-16T03:49:50.634Z,68.98
2018-12-16T03:52:20.389Z,68.76
2018-12-16T03:54:49.696Z,68.70
2018-12-16T03:57:18.249Z,68.86
2018-12-16T03:59:47.591Z,68.83
2018-12-16T04:02:16.004Z,68.40
2018-12-16T04:04:48.107Z,69.18
2018-12-16T04:07:16.626Z,69.00
2018-12-16T04:09:45.214Z,68.42
2018-12-16T04:12:14.697Z,69.24
2018-12-16T04:14:43.271Z,68.60
2018-12-16T04:17:11.804Z,68.81
2018-12-16T04:19:41.076Z,68.76
2018-12-16T04:22:09.754Z,68.19
2018-12-16T04:24:39.697Z,68.16
2018-12-16T04:27:11.205Z,68.17
2018-12-16T04:29:39.909Z,68.07
2018-12-16T04:32:09.791Z,67.68
2018-12-16T04:34:39.910Z,68.53
2018-12-16T04:37:14.289Z,69.01
2018-12-16T04:39:43.451Z,68.47
2018-12-16T04:42:12.244Z,68.40
2018-12-16T04:44:40.797Z,68.80
2018-12-16T04:47:10.009Z,68.21
2018-12-16T04:49:38.694Z,68.80
2018-12-16T04:52:10.565Z,68.13
2018-12-16T04:54:39.330Z,68.83
2018-12-16T04:57:12.093Z,68.49
2018-12-16T04:59:40.564Z,67.98
2018-12-16T05:02:10.330Z,67.46
2018-12-16T05:04:38.975Z,69.01
2018-12-16T05:07:09.471Z,68.46
2018-12-16T05:09:40.076Z,67.97
2018-12-16T05:12:09.899Z,67.98
2018-12-16T05:14:39.334Z,68.86
2018-12-16T05:17:07.969Z,69.01
2018-12-16T05:19:39.571Z,68.25
2018-12-16T05:22:08.364Z,69.25
2018-12-16T05:24:42.570Z,68.94
2018-12-16T05:27:10.944Z,68.01
2018-12-16T05:29:39.451Z,68.64
2018-12-16T05:32:08.049Z,68.54
2018-12-16T05:34:36.524Z,68.02
2018-12-16T05:37:05.784Z,68.17
2018-12-16T05:39:34.184Z,69.01
2018-12-16T05:42:04.009Z,67.91
2018-12-16T05:44:32.614Z,67.84
2018-12-16T05:47:01.194Z,67.95
2018-12-16T05:49:35.813Z,68.39
2018-12-16T05:52:04.270Z,67.36
2018-12-16T05:54:32.554Z,68.65
2018-12-16T05:57:00.821Z,67.87
2018-12-16T05:59:31.121Z,68.47
2018-12-16T06:02:01.586Z,68.66
2018-12-16T06:04:34.802Z,67.46
2018-12-16T06:07:04.569Z,68.25
2018-12-16T06:09:33.485Z,68.73
2018-12-16T06:12:17.016Z,68.02
2018-12-16T06:14:45.459Z,67.53
2018-12-16T06:17:14.029Z,68.47
2018-12-16T06:19:42.570Z,67.60
2018-12-16T06:22:11.104Z,68.35
2018-12-16T06:24:42.777Z,68.09
2018-12-16T06:27:12.234Z,67.97
2018-12-16T06:29:42.244Z,67.77
2018-12-16T06:32:13.439Z,67.51
2018-12-16T06:34:42.199Z,67.65
2018-12-16T06:37:11.559Z,68.17
2018-12-16T06:39:40.166Z,67.55
2018-12-16T06:42:08.724Z,67.48
2018-12-16T06:44:37.354Z,67.50
2018-12-16T06:47:05.913Z,67.77
2018-12-16T06:49:34.514Z,68.21
2018-12-16T06:52:03.210Z,67.96
2018-12-16T06:54:31.824Z,67.69
2018-12-16T06:57:00.624Z,67.14
2018-12-16T06:59:29.849Z,67.04
2018-12-16T07:02:00.943Z,66.99
2018-12-16T07:04:29.563Z,67.14
2018-12-16T07:06:58.578Z,66.85
2018-12-16T07:09:27.523Z,67.62
2018-12-16T07:11:56.089Z,67.24
2018-12-16T07:14:55.903Z,67.22
2018-12-16T07:17:30.902Z,66.76
2018-12-16T07:19:59.633Z,67.48
2018-12-16T07:22:28.203Z,67.36
2018-12-16T07:25:01.498Z,67.62
2018-12-16T07:27:29.888Z,67.08
2018-12-16T07:29:58.597Z,66.66
2018-12-16T07:32:27.003Z,67.09
2018-12-16T07:34:55.548Z,67.33
2018-12-16T07:37:24.645Z,67.39
2018-12-16T07:42:49.304Z,68.16
2018-12-16T07:45:27.341Z,68.89
2018-12-16T07:48:07.980Z,71.00
2018-12-16T07:50:36.853Z,72.14
2018-12-16T07:53:05.360Z,74.38
2018-12-16T07:55:33.668Z,76.51
2018-12-16T07:58:03.303Z,77.06
2018-12-16T08:00:34.882Z,77.84
2018-12-16T08:03:04.568Z,79.71
2018-12-16T08:05:33.087Z,81.42
2018-12-16T08:08:01.568Z,83.01
2018-12-16T08:10:30.354Z,84.05
2018-12-16T08:12:58.888Z,85.04
2018-12-16T08:15:27.308Z,85.55
2018-12-16T08:17:55.694Z,86.10
2018-12-16T08:20:24.143Z,85.93
2018-12-16T08:22:52.578Z,86.14
2018-12-16T08:25:24.171Z,86.38
2018-12-16T08:27:53.995Z,86.69
2018-12-16T08:30:22.464Z,86.87
2018-12-16T08:32:50.840Z,86.65
2018-12-16T08:35:22.854Z,86.47
2018-12-16T08:37:51.164Z,86.63
2018-12-16T08:40:19.568Z,86.58
2018-12-16T08:42:47.974Z,85.96
2018-12-16T08:45:16.366Z,85.94
2018-12-16T08:47:44.794Z,86.04
2018-12-16T08:50:13.324Z,85.64
2018-12-16T08:52:41.594Z,85.97
2018-12-16T08:55:09.962Z,85.46
2018-12-16T08:57:38.389Z,86.12
2018-12-16T09:00:07.499Z,86.83
2018-12-16T09:02:35.864Z,86.78
2018-12-16T09:05:04.684Z,86.78
2018-12-16T09:07:37.173Z,86.61
2018-12-16T09:10:03.894Z,85.79
2018-12-16T09:12:32.355Z,85.91
2018-12-16T09:15:00.651Z,85.88
2018-12-16T09:17:29.085Z,85.24
2018-12-16T09:19:57.516Z,85.66
2018-12-16T09:22:25.874Z,85.63
2018-12-16T09:24:54.245Z,84.52
2018-12-16T09:27:22.704Z,84.88
2018-12-16T09:29:51.240Z,85.72
2018-12-16T09:32:19.664Z,85.58
2018-12-16T09:34:48.074Z,85.81
2018-12-16T09:37:17.384Z,85.12
2018-12-16T09:39:45.754Z,84.79
2018-12-16T09:42:14.125Z,85.18
2018-12-16T09:44:43.104Z,84.46
2018-12-16T09:47:11.411Z,84.76
2018-12-16T09:49:39.758Z,84.72
2018-12-16T09:52:08.254Z,85.40
2018-12-16T09:54:36.619Z,84.65
2018-12-16T09:57:04.944Z,84.97
2018-12-16T09:59:33.274Z,84.92
2018-12-16T10:02:01.758Z,84.73
2018-12-16T10:04:30.599Z,84.97
2018-12-16T10:06:59.024Z,84.86
2018-12-16T10:09:27.279Z,84.06
2018-12-16T10:11:55.509Z,85.38
2018-12-16T10:14:23.827Z,86.63
2018-12-16T10:16:52.134Z,87.37
2018-12-16T10:19:20.375Z,87.09
2018-12-16T10:21:48.689Z,87.61
2018-12-16T10:24:17.014Z,87.69
2018-12-16T10:26:46.102Z,88.39
2018-12-16T10:29:14.524Z,88.70
2018-12-16T10:31:43.024Z,88.62
2018-12-16T10:34:11.384Z,88.50
2018-12-16T10:36:39.624Z,88.01
2018-12-16T10:39:08.624Z,87.88
2018-12-16T10:41:36.994Z,88.18
2018-12-16T10:44:05.326Z,86.96
2018-12-16T10:46:34.343Z,86.98
2018-12-16T10:49:04.900Z,86.93
2018-12-16T10:51:33.224Z,86.04
2018-12-16T10:54:01.544Z,86.59
2018-12-16T10:56:29.844Z,85.14
2018-12-16T10:58:58.269Z,85.58
2018-12-16T11:01:28.554Z,86.09
2018-12-16T11:03:57.254Z,86.27
2018-12-16T11:06:25.711Z,85.82
2018-12-16T11:08:55.269Z,84.77
2018-12-16T11:11:23.546Z,85.85
2018-12-16T11:13:51.950Z,85.09
2018-12-16T11:16:20.259Z,85.08
2018-12-16T11:18:48.679Z,85.04
2018-12-16T11:21:17.079Z,84.00
2018-12-16T11:23:45.469Z,85.09
2018-12-16T11:26:13.869Z,84.91
2018-12-16T11:28:42.130Z,84.17
2018-12-16T11:31:10.424Z,84.83
2018-12-16T11:33:38.755Z,85.69
2018-12-16T11:36:07.204Z,85.73
2018-12-16T11:38:35.694Z,85.10
2018-12-16T11:41:04.225Z,85.58
2018-12-16T11:43:32.745Z,85.86
2018-12-16T11:46:01.149Z,85.29
2018-12-16T11:48:29.551Z,86.33
2018-12-16T11:50:57.875Z,85.86
2018-12-16T11:53:26.615Z,84.92
2018-12-16T11:55:55.012Z,85.18
2018-12-16T11:58:23.552Z,85.70
2018-12-16T12:00:52.072Z,85.15
2018-12-16T12:03:20.506Z,85.89
2018-12-16T12:05:48.897Z,85.08
2018-12-16T12:08:17.280Z,85.32
2018-12-16T12:10:46.245Z,85.10
2018-12-16T12:13:14.838Z,85.52
2018-12-16T12:15:43.524Z,85.88
2018-12-16T12:18:11.867Z,85.57
2018-12-16T12:20:41.066Z,85.15
2018-12-16T12:23:09.777Z,85.48
2018-12-16T12:25:38.521Z,85.74
2018-12-16T12:28:07.549Z,85.20
2018-12-16T12:30:36.329Z,85.31
2018-12-16T12:33:05.106Z,85.22
2018-12-16T12:35:34.086Z,84.56
2018-12-16T12:38:02.736Z,84.67
2018-12-16T12:40:31.525Z,85.04
2018-12-16T12:43:00.340Z,84.89
2018-12-16T12:45:29.152Z,83.76
2018-12-16T12:47:57.891Z,84.44
2018-12-16T12:50:26.588Z,84.92
2018-12-16T12:52:55.335Z,85.34
2018-12-16T12:55:26.911Z,85.12
2018-12-16T12:57:54.844Z,84.89
2018-12-16T13:00:23.467Z,83.97
2018-12-16T13:02:52.156Z,84.98
2018-12-16T13:05:21.024Z,84.29
2018-12-16T13:07:49.838Z,83.85
2018-12-16T13:10:18.476Z,83.29
2018-12-16T13:12:47.181Z,82.99
2018-12-16T13:15:15.931Z,83.62
2018-12-16T13:17:44.562Z,83.79
2018-12-16T13:20:13.343Z,84.09
2018-12-16T13:22:41.939Z,84.29
2018-12-16T13:25:21.301Z,83.99
2018-12-16T13:27:49.860Z,84.56
2018-12-16T13:30:18.532Z,84.21
2018-12-16T13:32:47.279Z,84.31
2018-12-16T13:35:16.001Z,83.82
2018-12-16T13:37:44.735Z,84.18
2018-12-16T13:40:13.422Z,83.85
2018-12-16T13:42:42.112Z,84.31
2018-12-16T13:45:10.708Z,84.50
2018-12-16T13:47:39.339Z,84.75
2018-12-16T13:50:09.449Z,84.57
2018-12-16T13:52:38.541Z,84.88
2018-12-16T13:55:07.987Z,84.91
2018-12-16T13:57:37.252Z,85.05
2018-12-16T14:00:07.086Z,85.34
2018-12-16T14:02:35.760Z,86.19
2018-12-16T14:05:05.491Z,85.73
2018-12-16T14:07:34.131Z,85.90
2018-12-16T14:10:02.941Z,85.57
2018-12-16T14:12:31.674Z,85.10
2018-12-16T14:15:01.776Z,85.80
2018-12-16T14:17:31.489Z,85.63
2018-12-16T14:20:01.571Z,85.97
2018-12-16T14:22:31.684Z,85.56
2018-12-16T14:25:06.604Z,86.46
2018-12-16T14:27:39.454Z,85.84
2018-12-16T14:30:14.626Z,86.03
2018-12-16T14:32:44.746Z,85.40
2018-12-16T14:35:15.168Z,86.24
2018-12-16T14:37:47.714Z,86.01
2018-12-16T14:40:18.835Z,85.67
2018-12-16T14:42:57.741Z,86.21
2018-12-16T14:45:31.285Z,84.96
2018-12-16T14:48:00.854Z,84.87
2018-12-16T14:50:36.594Z,85.46
2018-12-16T14:53:08.426Z,86.13
2018-12-16T14:55:38.763Z,85.36
2018-12-16T14:58:12.894Z,86.20
2018-12-16T15:00:44.188Z,86.32
2018-12-16T15:03:15.393Z,85.74
2018-12-16T15:05:44.535Z,86.00
2018-12-16T15:08:18.793Z,85.62
2018-12-16T15:10:56.412Z,86.93
2018-12-16T15:13:30.895Z,86.53
2018-12-16T15:16:06.479Z,86.34
2018-12-16T15:18:37.353Z,87.20
2018-12-16T15:21:07.908Z,86.08
2018-12-16T15:23:37.364Z,86.42
2018-12-16T15:26:18.674Z,85.31
2018-12-16T15:28:56.165Z,85.54
2018-12-16T15:31:29.633Z,86.05
2018-12-16T15:33:59.683Z,86.80
2018-12-16T15:36:32.555Z,86.92
2018-12-16T15:39:03.418Z,86.57
2018-12-16T15:41:33.643Z,86.96
2018-12-16T15:44:03.290Z,86.33
2018-12-16T15:46:34.884Z,86.37
2018-12-16T15:49:05.976Z,86.34
2018-12-16T15:51:46.243Z,86.11
2018-12-16T15:54:16.583Z,86.15
2018-12-16T15:56:46.350Z,85.81
2018-12-16T15:59:15.354Z,85.68
2018-12-16T16:01:45.063Z,86.26
2018-12-16T16:04:13.689Z,87.09
2018-12-16T16:06:42.729Z,87.43
2018-12-16T16:09:12.123Z,87.63
2018-12-16T16:11:40.698Z,87.71
2018-12-16T16:14:09.993Z,86.53
2018-12-16T16:16:38.484Z,86.25
2018-12-16T16:19:08.131Z,86.73
2018-12-16T16:21:36.789Z,86.10
2018-12-16T16:24:05.610Z,85.76
2018-12-16T16:26:34.533Z,86.17
2018-12-16T16:29:03.810Z,86.27
2018-12-16T16:31:33.583Z,86.41
2018-12-16T16:34:03.029Z,86.35
2018-12-16T16:36:34.780Z,86.36
2018-12-16T16:39:05.225Z,86.30
2018-12-16T16:41:34.223Z,85.94
2018-12-16T16:44:02.858Z,85.87
2018-12-16T16:46:32.721Z,85.94
2018-12-16T16:49:01.378Z,86.01
2018-12-16T16:51:30.518Z,85.87
2018-12-16T16:54:02.740Z,86.46
2018-12-16T16:56:31.508Z,86.56
2018-12-16T16:59:02.506Z,85.98
2018-12-16T17:01:34.834Z,85.74
2018-12-16T17:04:04.944Z,86.39
2018-12-16T17:06:37.313Z,86.52
2018-12-16T17:11:49.324Z,87.21
2018-12-16T17:14:21.920Z,86.25
2018-12-16T17:16:55.034Z,85.45
2018-12-16T17:19:26.389Z,86.75
2018-12-16T17:21:58.447Z,86.49
2018-12-16T17:24:32.779Z,86.00
2018-12-16T17:27:11.118Z,85.21
2018-12-16T17:29:40.389Z,85.68
2018-12-16T17:32:09.063Z,86.47
2018-12-16T17:34:38.214Z,86.59
2018-12-16T17:37:07.450Z,86.26
2018-12-16T17:39:36.560Z,86.36
2018-12-16T17:42:05.219Z,85.14
2018-12-16T17:44:35.769Z,85.71
2018-12-16T17:47:10.574Z,86.21
2018-12-16T17:49:39.523Z,86.09
2018-12-16T17:52:08.463Z,86.57
2018-12-16T17:54:39.323Z,86.35
2018-12-16T17:57:08.490Z,85.48
2018-12-16T17:59:37.727Z,85.85
2018-12-16T18:02:06.900Z,85.96
2018-12-16T18:04:35.809Z,85.83
2018-12-16T18:07:05.734Z,86.72
2018-12-16T18:09:36.804Z,86.69
2018-12-16T18:12:08.199Z,86.78
2018-12-16T18:14:37.560Z,86.75
2018-12-16T18:17:08.486Z,87.14
2018-12-16T18:19:37.529Z,87.33
2018-12-16T18:22:13.967Z,87.36
2018-12-16T18:24:41.987Z,86.82
2018-12-16T18:27:12.043Z,87.23
2018-12-16T18:32:19.584Z,87.03
2018-12-16T18:34:49.887Z,87.60
2018-12-16T18:37:19.471Z,87.32
2018-12-16T18:39:48.586Z,87.64
2018-12-16T18:42:18.221Z,87.64
2018-12-16T18:44:47.043Z,87.61
2018-12-16T18:47:16.119Z,87.75
2018-12-16T18:49:44.910Z,87.71
2018-12-16T18:52:14.051Z,87.55
2018-12-16T18:54:43.290Z,88.07
2018-12-16T18:57:12.975Z,88.14
2018-12-16T18:59:42.018Z,88.33
2018-12-16T19:02:11.550Z,88.54
2018-12-16T19:04:42.890Z,88.30
2018-12-16T19:07:14.250Z,87.32
2018-12-16T19:09:43.579Z,87.65
2018-12-16T19:12:12.331Z,87.39
2018-12-16T19:14:43.010Z,87.54
2018-12-16T19:17:12.018Z,87.39
2018-12-16T19:19:41.032Z,88.14
2018-12-16T19:22:10.230Z,87.66
2018-12-16T19:24:39.018Z,88.11
2018-12-16T19:27:08.198Z,88.18
2018-12-16T19:29:37.743Z,88.72
2018-12-16T19:32:06.917Z,87.75
2018-12-16T19:34:35.739Z,88.15
2018-12-16T19:37:04.538Z,88.87
2018-12-16T19:39:34.342Z,88.64
2018-12-16T19:42:03.378Z,88.43
2018-12-16T19:44:33.530Z,88.94
2018-12-16T19:47:05.739Z,88.58
2018-12-16T19:49:36.098Z,88.89
2018-12-16T19:52:05.638Z,88.54
2018-12-16T19:54:36.318Z,89.23
2018-12-16T19:57:07.019Z,89.08
2018-12-16T19:59:41.178Z,88.97
2018-12-16T20:02:17.330Z,89.12
2018-12-16T20:04:52.978Z,89.21
2018-12-16T20:07:25.930Z,88.15
2018-12-16T20:09:57.910Z,88.49
2018-12-16T20:12:29.238Z,88.93
2018-12-16T20:15:00.681Z,88.57
2018-12-16T20:17:31.818Z,88.76
2018-12-16T20:20:04.690Z,88.78
2018-12-16T20:22:38.938Z,88.29
2018-12-16T20:25:10.410Z,88.46
2018-12-16T20:27:43.230Z,88.73
2018-12-16T20:30:17.198Z,88.88
2018-12-16T20:32:48.358Z,88.63
2018-12-16T20:35:23.898Z,88.61
2018-12-16T20:38:06.477Z,88.56
2018-12-16T20:40:37.370Z,88.97
2018-12-16T20:43:09.210Z,89.46
2018-12-16T20:45:38.370Z,88.82
2018-12-16T20:48:19.098Z,89.07
2018-12-16T21:04:23.710Z,88.78
2018-12-16T21:09:45.321Z,88.34
2018-12-16T21:12:24.318Z,88.88
2018-12-16T21:15:01.706Z,88.11
2018-12-16T21:17:36.558Z,88.56
2018-12-16T21:20:09.111Z,88.87
2018-12-16T21:22:40.178Z,88.62
2018-12-16T21:25:10.838Z,89.08
2018-12-16T21:27:39.461Z,89.16
2018-12-16T21:30:08.111Z,88.31
2018-12-16T21:32:36.738Z,88.74
2018-12-16T21:35:05.820Z,89.53
2018-12-16T21:37:34.598Z,88.86
2018-12-16T21:40:05.357Z,89.71
2018-12-16T21:42:33.846Z,89.48
2018-12-16T21:45:02.378Z,89.12
2018-12-16T21:47:31.019Z,89.56
2018-12-16T21:49:59.678Z,89.85
2018-12-16T21:52:28.217Z,90.56
2018-12-16T21:54:56.797Z,90.82
2018-12-16T21:57:25.342Z,90.95
2018-12-16T21:59:53.917Z,91.57
2018-12-16T22:02:22.510Z,90.56
2018-12-16T22:04:51.017Z,90.32
2018-12-16T22:07:19.591Z,90.87
2018-12-16T22:09:48.251Z,90.86
2018-12-16T22:12:16.697Z,91.46
2018-12-16T22:14:45.198Z,91.59
2018-12-16T22:17:13.578Z,90.81
2018-12-16T22:19:42.090Z,91.36
2018-12-16T22:22:10.457Z,91.31
2018-12-16T22:24:38.897Z,92.54
2018-12-16T22:27:07.038Z,92.25
2018-12-16T22:29:35.270Z,92.51
2018-12-16T22:32:03.750Z,92.62
2018-12-16T22:34:31.910Z,92.06
2018-12-16T22:37:00.289Z,92.59
2018-12-16T22:39:28.497Z,92.35
2018-12-16T22:41:56.678Z,92.37
2018-12-16T22:44:24.739Z,92.94
2018-12-16T22:46:52.938Z,93.45
2018-12-16T22:49:21.270Z,93.30
2018-12-16T22:51:49.630Z,93.81
2018-12-16T22:54:17.921Z,93.64
2018-12-16T22:56:46.838Z,93.18
2018-12-16T22:59:14.989Z,92.80
2018-12-16T23:01:43.090Z,92.78
2018-12-16T23:04:11.278Z,93.53
2018-12-16T23:06:40.418Z,93.72
2018-12-16T23:09:08.657Z,93.63
2018-12-16T23:11:36.798Z,93.50
2018-12-16T23:14:05.058Z,92.90
2018-12-16T23:16:33.117Z,93.65
2018-12-16T23:19:01.337Z,93.75
2018-12-16T23:21:29.398Z,93.79
2018-12-16T23:23:57.581Z,93.80
2018-12-16T23:26:27.732Z,94.69
2018-12-16T23:28:55.769Z,94.11
2018-12-16T23:31:23.899Z,93.80
2018-12-16T23:33:51.989Z,94.62
2018-12-16T23:36:20.117Z,94.66
2018-12-16T23:38:48.168Z,94.91
2018-12-16T23:41:16.289Z,94.33
2018-12-16T23:43:44.402Z,94.62
2018-12-16T23:46:12.529Z,94.24
2018-12-16T23:48:40.697Z,94.20
2018-12-16T23:51:08.817Z,94.46
2018-12-16T23:53:36.916Z,94.06
2018-12-16T23:56:05.137Z,93.91
2018-12-16T23:58:33.197Z,93.98
